Terminal Aerodrome Forecast
Issued by NWS

Home | Current Version | Previous Version | Text Only | Print | Product List | Glossary On
Versions: 1 2 3 4 5 6 7 8 9 10 11 12 13
000
FTUS42 TJSJ 041720
TAFJSJ
TAF
TJSJ 041720Z 0418/0518 06016KT P6SM FEW035
     FM042300 08010KT P6SM FEW025
     FM050300 10005KT P6SM VCSH FEW025=

USA.gov is the U.S. government's official web portal to all federal, state and local government web resources and services.